Weather at Njoro Airport

Public forecast

Using degrees Celsius for public forecast. Weather courtesy of forecast.io.

Closest aviation weather report (METAR) to Njoro Airport

Closest report is Nakuru Airport, 14.3 nm (26.4 km) E.

2023/12/04 21:00 (retrieved 2 hours ago)

HKNK 042100Z 00000KT CAVOK 16/11

Closest aviation forecast (TAF) to Njoro Airport

Forecast is more than 6 hours old.

Closest forecast is Eldoret International Airport, 59.7 nm (110.5 km) NW.

2023/12/04 12:54 (retrieved 10 hours ago)

TAF TAF HKEL 041100Z 0412/0518 12010KT 9999 BKN024 TEMPO 0414/0418 VRB10K T -TSRA FEW019CB BKN020 BECMG 0420/0423 VRB02KT NSW SCT018 BECMG 0508 /0511 11010KT FEW023CB BKN024 TEMPO 0513/0517 -TSRA FEW021CB SCT022 B KN080